Time;durP1;ratioP1;P1;durP2;ratioP2;P2;SDS_P1;SDS_P2;PMS_P1;PMS_P2;Temp;Humidity;BMP_temperature;BMP_pressure;BME280_temperature;BME280_humidity;BME280_pressure;Samples;Min_cycle;Max_cycle;Signal;HPM_P1;HPM_P2
2023/04/09 00:02:17;;;;;;;63.37;22.53;;;7.40;99.90;6.70;101340;;;;554606;256;24152;-79
2023/04/09 00:04:42;;;;;;;58.10;22.60;;;7.40;99.90;6.70;101338;;;;567123;249;24194;-77
2023/04/09 00:07:10;;;;;;;57.43;20.37;;;7.40;99.90;6.70;101340;;;;567467;249;24061;-79
2023/04/09 00:09:38;;;;;;;58.70;20.30;;;7.40;99.90;6.70;101329;;;;567182;249;24085;-78
2023/04/09 00:12:06;;;;;;;56.10;21.67;;;7.40;99.90;6.70;101327;;;;567002;250;24086;-78
2023/04/09 00:14:34;;;;;;;43.60;18.87;;;7.40;99.90;6.70;101333;;;;566973;250;24094;-78
2023/04/09 00:17:02;;;;;;;50.13;18.20;;;7.40;99.90;6.70;101327;;;;566708;250;24081;-78
2023/04/09 00:19:30;;;;;;;55.57;19.20;;;7.40;99.90;6.70;101326;;;;566426;250;24055;-79
2023/04/09 00:21:57;;;;;;;51.20;18.00;;;7.40;99.90;6.70;101335;;;;572164;250;24072;-77
2023/04/09 00:24:25;;;;;;;50.47;20.93;;;7.40;99.90;6.70;101332;;;;572568;250;24153;-77
2023/04/09 00:26:53;;;;;;;50.57;19.23;;;7.40;99.90;6.70;101328;;;;572542;250;24039;-78
2023/04/09 00:29:21;;;;;;;43.90;17.83;;;7.40;99.90;6.70;101326;;;;572080;250;24067;-76
2023/04/09 00:31:49;;;;;;;59.43;20.63;;;7.40;99.90;6.70;101321;;;;571952;247;24058;-78
2023/04/09 00:34:17;;;;;;;42.70;16.97;;;7.40;99.90;6.70;101326;;;;565857;249;24132;-77
2023/04/09 00:36:45;;;;;;;45.07;17.63;;;7.40;99.90;6.70;101323;;;;567893;249;24047;-77
2023/04/09 00:39:14;;;;;;;45.20;17.37;;;7.40;99.90;6.70;101324;;;;563791;254;24116;-77
2023/04/09 00:41:41;;;;;;;45.90;16.93;;;7.40;99.90;6.70;101321;;;;575360;248;24084;-80
2023/04/09 00:44:09;;;;;;;54.70;19.87;;;7.40;99.90;6.70;101321;;;;567784;249;24105;-78
2023/04/09 00:46:37;;;;;;;43.50;16.83;;;7.40;99.90;6.70;101325;;;;574430;246;24174;-77
2023/04/09 00:49:09;;;;;;;41.40;17.07;;;7.40;99.90;6.70;101324;;;;567778;249;24084;-79
2023/04/09 00:51:33;;;;;;;45.03;17.10;;;7.40;99.90;6.70;101321;;;;567694;249;24104;-78
2023/04/09 00:54:02;;;;;;;46.50;19.17;;;7.40;99.90;6.70;101321;;;;567554;249;24115;-79
2023/04/09 00:56:30;;;;;;;43.00;18.07;;;7.40;99.90;6.70;101323;;;;574490;249;24226;-79
2023/04/09 00:58:58;;;;;;;48.07;21.43;;;7.40;99.90;6.70;101323;;;;574358;246;24186;-78
2023/04/09 01:01:26;;;;;;;45.47;19.97;;;7.50;99.90;6.80;101321;;;;567559;249;24129;-80
2023/04/09 01:03:54;;;;;;;43.03;17.53;;;7.40;99.90;6.80;101314;;;;574868;249;24083;-79
2023/04/09 01:06:56;;;;;;;35.83;16.27;;;7.50;99.90;6.70;101318;;;;568833;248;24130;-78
2023/04/09 01:09:35;;;;;;;41.33;16.53;;;7.40;99.90;6.70;101317;;;;568747;247;24115;-78
2023/04/09 01:12:18;;;;;;;40.37;15.10;;;7.30;99.90;6.70;101316;;;;568996;249;24123;-79
2023/04/09 01:15:01;;;;;;;36.70;16.07;;;7.30;99.90;6.60;101312;;;;565112;249;24273;-79
2023/04/09 01:17:38;;;;;;;45.17;15.17;;;7.30;99.90;6.60;101318;;;;572050;247;24084;-76
2023/04/09 01:20:14;;;;;;;36.40;15.50;;;7.30;99.90;6.60;101320;;;;568253;249;24122;-80
2023/04/09 01:23:01;;;;;;;37.23;15.97;;;7.20;99.90;6.60;101327;;;;568178;249;24104;-79
2023/04/09 01:25:58;;;;;;;35.87;16.33;;;7.20;99.90;6.60;101331;;;;567496;249;24115;-78
2023/04/09 01:28:44;;;;;;;40.57;15.50;;;7.20;99.90;6.60;101328;;;;567709;249;24101;-78
2023/04/09 01:31:15;;;;;;;43.30;15.43;;;7.20;99.90;6.60;101320;;;;567774;249;24138;-79
2023/04/09 01:33:43;;;;;;;39.93;16.70;;;7.20;99.90;6.60;101322;;;;567705;249;24114;-79
2023/04/09 01:36:11;;;;;;;37.80;16.73;;;7.30;99.90;6.60;101325;;;;568053;249;24125;-78
2023/04/09 01:38:40;;;;;;;40.50;16.60;;;7.30;99.90;6.60;101324;;;;567943;249;24164;-78
2023/04/09 01:41:09;;;;;;;41.80;16.30;;;7.30;99.90;6.60;101327;;;;567976;249;24144;-79
2023/04/09 01:43:37;;;;;;;30.27;12.17;;;7.30;99.90;6.60;101329;;;;567602;249;24149;-77
2023/04/09 01:46:05;;;;;;;28.10;11.87;;;7.30;99.90;6.60;101322;;;;567593;249;24116;-76
2023/04/09 01:48:32;;;;;;;30.63;11.90;;;7.30;99.90;6.50;101325;;;;574655;249;24197;-78
2023/04/09 01:51:00;;;;;;;27.40;11.80;;;7.20;99.90;6.50;101321;;;;571451;246;24200;-74
2023/04/09 01:53:29;;;;;;;30.37;12.60;;;7.20;99.90;6.50;101323;;;;563143;250;24099;-74
2023/04/09 01:56:00;;;;;;;34.87;12.03;;;7.20;99.90;6.40;101323;;;;567438;249;24110;-73
2023/04/09 01:58:28;;;;;;;28.33;11.30;;;7.10;99.90;6.40;101323;;;;564963;250;24122;-75
2023/04/09 02:00:57;;;;;;;28.97;11.60;;;7.10;99.90;6.30;101322;;;;580358;247;24181;-75
2023/04/09 02:03:25;;;;;;;28.40;11.57;;;7.10;99.90;6.30;101324;;;;575075;249;24171;-74
2023/04/09 02:06:11;;;;;;;26.03;10.87;;;7.00;99.90;6.20;101322;;;;575557;249;24156;-75
2023/04/09 02:08:39;;;;;;;34.57;11.50;;;7.00;99.90;6.20;101331;;;;567488;249;24076;-75
2023/04/09 02:11:07;;;;;;;26.93;10.80;;;6.90;99.90;6.20;101331;;;;575518;249;25187;-74
2023/04/09 02:13:39;;;;;;;30.27;12.17;;;6.90;99.90;6.20;101323;;;;572386;249;24113;-75
2023/04/09 02:16:04;;;;;;;28.40;9.80;;;6.90;99.90;6.20;101327;;;;566926;249;24110;-74
2023/04/09 02:18:32;;;;;;;28.10;11.23;;;6.80;99.90;6.10;101326;;;;567639;249;24091;-74
2023/04/09 02:21:03;;;;;;;29.33;11.37;;;6.80;99.90;6.10;101329;;;;568267;249;24118;-74
2023/04/09 02:23:27;;;;;;;27.53;10.17;;;6.80;99.90;6.10;101327;;;;568026;249;24145;-74
2023/04/09 02:25:55;;;;;;;32.67;11.43;;;6.80;99.90;6.10;101330;;;;568213;249;24117;-74
2023/04/09 02:28:27;;;;;;;29.30;11.27;;;6.80;99.90;6.00;101330;;;;576651;247;24130;-75
2023/04/09 02:30:52;;;;;;;28.57;10.67;;;6.70;99.90;6.00;101328;;;;567808;249;25200;-75
2023/04/09 02:33:20;;;;;;;34.53;12.13;;;6.70;99.90;6.00;101330;;;;567676;249;24126;-75
2023/04/09 02:35:48;;;;;;;20.70;10.17;;;6.70;99.90;6.00;101327;;;;567420;249;24117;-74
2023/04/09 02:38:16;;;;;;;32.37;11.03;;;6.70;99.90;6.00;101322;;;;567403;249;24081;-75
2023/04/09 02:40:44;;;;;;;28.70;11.23;;;6.70;99.90;6.00;101322;;;;567357;249;24125;-74
2023/04/09 02:43:12;;;;;;;27.40;11.33;;;6.70;99.90;6.00;101328;;;;567482;249;24064;-73
2023/04/09 02:45:39;;;;;;;33.77;11.87;;;6.70;99.90;6.10;101327;;;;567378;249;24126;-74
2023/04/09 02:48:08;;;;;;;29.70;11.97;;;6.70;99.90;6.10;101327;;;;567250;249;24162;-74
2023/04/09 02:50:36;;;;;;;42.37;13.10;;;6.70;99.90;6.10;101322;;;;567382;249;24139;-74
2023/04/09 02:53:07;;;;;;;33.70;13.90;;;6.80;99.90;6.10;101329;;;;567211;249;24103;-74
2023/04/09 02:55:32;;;;;;;37.60;14.07;;;6.80;99.90;6.10;101327;;;;567055;249;24139;-75
2023/04/09 02:58:00;;;;;;;35.20;13.73;;;6.80;99.90;6.10;101325;;;;566961;249;24119;-75
2023/04/09 03:00:28;;;;;;;36.87;14.33;;;6.80;99.90;6.10;101324;;;;566983;249;24101;-75
2023/04/09 03:02:56;;;;;;;39.10;14.30;;;6.90;99.90;6.10;101331;;;;567182;249;24105;-76
2023/04/09 03:05:29;;;;;;;36.80;12.07;;;6.80;99.90;6.20;101325;;;;567090;249;24170;-75
2023/04/09 03:07:53;;;;;;;34.10;12.67;;;6.80;99.90;6.20;101326;;;;572122;249;24159;-75
2023/04/09 03:10:21;;;;;;;47.57;14.80;;;6.90;99.90;6.20;101322;;;;567093;249;24106;-74
2023/04/09 03:12:49;;;;;;;36.17;12.93;;;6.90;99.90;6.20;101335;;;;567244;249;24090;-74
2023/04/09 03:15:17;;;;;;;33.87;13.10;;;6.90;99.90;6.20;101332;;;;567133;249;24158;-77
2023/04/09 03:17:45;;;;;;;28.67;12.53;;;6.90;99.90;6.20;101325;;;;567019;249;24124;-78
2023/04/09 03:20:13;;;;;;;35.63;13.10;;;6.90;99.90;6.20;101322;;;;567151;249;24209;-77
2023/04/09 03:22:42;;;;;;;28.00;11.20;;;6.80;99.90;6.10;101325;;;;566998;249;24139;-74
2023/04/09 03:25:10;;;;;;;25.53;11.40;;;6.80;99.90;6.10;101323;;;;567435;249;24117;-75
2023/04/09 03:27:38;;;;;;;31.07;11.83;;;6.80;99.90;6.00;101326;;;;567533;249;24119;-74
2023/04/09 03:30:06;;;;;;;16.33;8.00;;;6.70;99.90;6.00;101326;;;;568383;249;24121;-76
2023/04/09 03:32:34;;;;;;;29.13;10.33;;;6.60;99.90;5.90;101325;;;;568524;249;24094;-73
2023/04/09 03:35:03;;;;;;;28.50;11.23;;;6.50;99.90;5.80;101318;;;;567831;249;24150;-75
2023/04/09 03:37:31;;;;;;;23.90;9.63;;;6.50;99.90;5.80;101323;;;;567920;249;24127;-74
2023/04/09 03:39:59;;;;;;;25.70;11.17;;;6.50;99.90;5.70;101321;;;;567610;249;24086;-74
2023/04/09 03:42:27;;;;;;;29.10;10.17;;;6.40;99.90;5.70;101317;;;;567749;249;24130;-74
2023/04/09 03:44:55;;;;;;;37.63;16.30;;;6.40;99.90;5.70;101319;;;;562738;249;35279;-74
2023/04/09 03:47:23;;;;;;;41.78;18.05;;;6.40;99.90;5.70;101316;;;;562557;249;35291;-73
2023/04/09 03:49:51;;;;;;;39.55;18.02;;;6.40;99.90;5.70;101314;;;;562508;249;35298;-75
2023/04/09 03:52:19;;;;;;;28.57;11.70;;;6.40;99.90;5.70;101310;;;;567362;249;24056;-74
2023/04/09 03:54:47;;;;;;;27.43;11.90;;;6.40;99.90;5.70;101310;;;;567483;249;24085;-75
2023/04/09 03:57:15;;;;;;;24.83;10.50;;;6.40;99.90;5.70;101307;;;;567399;245;24122;-74
2023/04/09 03:59:44;;;;;;;29.67;11.30;;;6.40;99.90;5.70;101306;;;;567785;249;24125;-74
2023/04/09 04:02:11;;;;;;;23.77;9.23;;;6.40;99.90;5.70;101308;;;;567606;249;24146;-74
2023/04/09 04:04:40;;;;;;;28.50;10.83;;;6.40;99.90;5.70;101310;;;;567202;249;24108;-74
2023/04/09 04:07:08;;;;;;;26.37;10.67;;;6.40;99.90;5.70;101314;;;;574195;249;24101;-74
2023/04/09 04:09:36;;;;;;;29.97;10.43;;;6.30;99.90;5.60;101309;;;;574096;249;24116;-74
2023/04/09 04:12:05;;;;;;;28.20;10.73;;;6.30;99.90;5.60;101304;;;;573892;249;24104;-74
2023/04/09 04:14:33;;;;;;;22.50;10.63;;;6.30;99.90;5.60;101308;;;;573796;249;24139;-73
2023/04/09 04:17:01;;;;;;;28.40;10.53;;;6.30;99.90;5.60;101309;;;;573739;249;24084;-74
2023/04/09 04:19:29;;;;;;;25.23;10.53;;;6.30;99.90;5.60;101313;;;;573758;249;25127;-73
2023/04/09 04:21:56;;;;;;;28.53;11.57;;;6.30;99.90;5.60;101313;;;;573760;249;24080;-75
2023/04/09 04:24:24;;;;;;;23.60;10.83;;;6.30;99.90;5.60;101314;;;;573750;249;25123;-75
2023/04/09 04:26:52;;;;;;;26.20;10.90;;;6.30;99.90;5.70;101312;;;;566602;249;24077;-75
2023/04/09 04:29:20;;;;;;;29.23;11.90;;;6.40;99.90;5.70;101318;;;;573737;249;24143;-74
2023/04/09 04:31:48;;;;;;;39.43;18.30;;;6.30;99.90;5.70;101312;;;;562039;250;35443;-75
2023/04/09 04:34:16;;;;;;;44.78;19.42;;;6.40;99.90;5.70;101310;;;;560571;253;35571;-73
2023/04/09 04:36:44;;;;;;;42.28;20.05;;;6.40;99.90;5.70;101319;;;;560545;254;46457;-74
2023/04/09 04:39:12;;;;;;;35.70;16.83;;;6.40;99.90;5.70;101324;;;;565540;253;24142;-75
2023/04/09 04:41:40;;;;;;;26.57;12.73;;;6.50;99.90;5.80;101319;;;;566706;251;24167;-74
2023/04/09 04:44:08;;;;;;;31.90;12.90;;;6.50;99.90;5.80;101322;;;;566633;253;24116;-75
2023/04/09 04:46:36;;;;;;;28.10;11.33;;;6.50;99.90;5.90;101331;;;;566260;252;24186;-74
2023/04/09 04:49:04;;;;;;;30.57;13.23;;;6.60;99.90;5.90;101325;;;;567212;249;24161;-74
2023/04/09 04:51:35;;;;;;;36.23;17.37;;;6.60;99.90;6.00;101322;;;;567789;249;35464;-75
2023/04/09 04:54:00;;;;;;;31.93;12.53;;;6.70;99.90;6.00;101326;;;;565880;253;24114;-73
2023/04/09 04:56:29;;;;;;;40.07;18.17;;;6.80;99.90;6.00;101321;;;;561217;253;35444;-74
2023/04/09 04:58:57;;;;;;;35.53;13.60;;;6.80;99.90;6.10;101324;;;;566052;249;25498;-74
2023/04/09 05:01:25;;;;;;;29.07;11.20;;;6.80;99.90;6.20;101326;;;;565853;253;24107;-73
2023/04/09 05:03:52;;;;;;;31.57;12.07;;;6.90;99.90;6.30;101329;;;;565753;252;24122;-73
2023/04/09 05:06:20;;;;;;;30.93;12.20;;;7.00;99.90;6.40;101328;;;;565871;253;24166;-74
2023/04/09 05:08:48;;;;;;;27.93;11.13;;;7.10;99.90;6.40;101317;;;;572671;249;24079;-73
2023/04/09 05:11:16;;;;;;;32.33;11.87;;;7.10;99.90;6.50;101320;;;;567473;249;24138;-74
2023/04/09 05:13:47;;;;;;;38.90;17.57;;;7.20;99.90;6.50;101326;;;;552965;253;46226;-74
2023/04/09 05:16:17;;;;;;;34.77;13.77;;;7.30;99.90;6.60;101328;;;;559370;252;24138;-75
2023/04/09 05:18:45;;;;;;;35.63;12.87;;;7.30;99.90;6.70;101317;;;;555611;251;24095;-75
2023/04/09 05:21:13;;;;;;;34.90;12.13;;;7.50;99.90;6.80;101332;;;;555430;254;24109;-75
2023/04/09 05:23:41;;;;;;;31.90;11.93;;;7.40;99.90;6.80;101328;;;;575781;248;24102;-76
2023/04/09 05:26:09;;;;;;;25.40;10.40;;;7.50;99.90;6.90;101324;;;;567093;249;24151;-75
2023/04/09 05:28:37;;;;;;;34.13;11.17;;;7.60;99.90;6.90;101316;;;;557113;254;24162;-75
2023/04/09 05:31:11;;;;;;;31.53;12.10;;;7.60;99.90;7.00;101322;;;;567534;249;24110;-76
2023/04/09 05:33:37;;;;;;;35.93;11.20;;;7.70;99.90;7.00;101325;;;;572394;248;25181;-74
2023/04/09 05:36:01;;;;;;;32.33;11.63;;;7.80;99.90;7.10;101330;;;;555420;254;24124;-76
2023/04/09 05:38:30;;;;;;;35.13;12.83;;;7.70;99.90;7.10;101324;;;;567073;249;24120;-75
2023/04/09 05:40:57;;;;;;;26.60;11.47;;;7.80;99.90;7.30;101321;;;;572142;248;24071;-74
2023/04/09 05:43:25;;;;;;;22.77;11.63;;;7.90;99.90;7.40;101321;;;;555028;254;24169;-74
2023/04/09 05:45:53;;;;;;;18.30;8.90;;;8.00;99.90;7.60;101325;;;;567017;249;24147;-73
2023/04/09 05:48:22;;;;;;;19.43;9.23;;;8.40;99.90;7.70;101330;;;;556760;254;24136;-74
2023/04/09 05:50:51;;;;;;;19.73;9.33;;;8.40;99.90;7.90;101330;;;;567048;249;24140;-75
2023/04/09 05:53:18;;;;;;;20.63;9.67;;;8.60;99.90;8.10;101329;;;;557835;253;24119;-76
2023/04/09 05:55:46;;;;;;;15.67;7.70;;;8.70;99.90;8.20;101317;;;;556070;258;25199;-75
2023/04/09 05:58:18;;;;;;;19.33;9.07;;;9.00;99.90;8.40;101326;;;;562137;251;24123;-77
2023/04/09 06:00:42;;;;;;;18.30;8.27;;;9.00;99.90;8.50;101337;;;;566020;251;24128;-75
2023/04/09 06:03:10;;;;;;;15.47;8.97;;;9.10;99.90;8.60;101334;;;;565955;253;24180;-74
2023/04/09 06:05:38;;;;;;;19.17;8.70;;;9.20;99.90;8.70;101330;;;;561448;255;24189;-75
2023/04/09 06:08:06;;;;;;;21.17;8.97;;;9.30;99.90;8.90;101329;;;;557663;253;24142;-75
2023/04/09 06:10:34;;;;;;;16.50;7.33;;;9.50;99.90;9.10;101336;;;;566010;254;24122;-75
2023/04/09 06:13:02;;;;;;;16.33;8.87;;;9.60;99.90;9.40;101332;;;;561107;256;25167;-77
2023/04/09 06:15:30;;;;;;;14.03;7.57;;;10.00;99.90;9.80;101330;;;;557771;254;24124;-77
2023/04/09 06:17:57;;;;;;;15.00;8.27;;;10.30;99.90;11.80;101335;;;;554584;254;24221;-76
2023/04/09 06:20:25;;;;;;;13.53;7.80;;;11.80;99.90;14.50;101347;;;;557371;249;24084;-77
2023/04/09 06:22:53;;;;;;;13.67;7.37;;;14.30;99.90;16.70;101344;;;;562287;251;24086;-77
2023/04/09 06:25:21;;;;;;;12.53;7.43;;;16.60;99.90;18.60;101348;;;;571287;251;24073;-77
2023/04/09 06:27:49;;;;;;;12.57;8.30;;;18.50;99.90;20.40;101349;;;;568438;250;24078;-77
2023/04/09 06:30:17;;;;;;;12.40;9.13;;;20.30;99.90;21.50;101347;;;;554513;254;23166;-77
2023/04/09 06:32:47;;;;;;;11.47;8.23;;;21.70;93.60;22.80;101351;;;;567502;249;24076;-76
2023/04/09 06:35:13;;;;;;;11.33;8.17;;;23.10;87.10;24.10;101357;;;;566568;249;23085;-76
2023/04/09 06:37:41;;;;;;;8.90;7.83;;;24.30;79.60;25.30;101351;;;;559456;253;23118;-77
2023/04/09 06:40:12;;;;;;;11.77;7.90;;;25.50;71.50;26.30;101358;;;;566833;247;23137;-76
2023/04/09 06:42:37;;;;;;;8.97;7.77;;;27.60;61.40;27.40;101374;;;;575471;247;24083;-79
2023/04/09 06:45:07;;;;;;;7.85;7.07;;;27.50;60.50;28.30;101383;;;;575634;247;24147;-78
2023/04/09 06:47:34;;;;;;;10.50;7.60;;;28.60;56.70;29.10;101380;;;;568985;247;23130;-79
2023/04/09 06:50:01;;;;;;;10.13;7.65;;;29.40;53.60;29.70;101380;;;;562604;252;23150;-77
2023/04/09 06:52:29;;;;;;;10.25;7.82;;;30.10;51.90;30.20;101382;;;;568682;247;23097;-77
2023/04/09 06:54:57;;;;;;;9.45;7.18;;;30.50;50.20;30.60;101388;;;;567040;247;23124;-77
2023/04/09 06:57:29;;;;;;;9.80;7.68;;;31.00;48.10;31.10;101392;;;;556414;251;23114;-76
2023/04/09 06:59:53;;;;;;;7.75;6.65;;;31.40;47.10;31.60;101403;;;;558032;251;25264;-76
2023/04/09 07:02:22;;;;;;;5.00;4.47;;;32.70;44.60;32.40;101404;;;;573735;245;23220;-77
2023/04/09 07:04:49;;;;;;;8.30;5.68;;;32.60;44.50;32.80;101411;;;;564891;246;23136;-77
2023/04/09 07:07:19;;;;;;;6.03;5.37;;;33.10;43.20;33.20;101413;;;;566216;247;24195;-78
2023/04/09 07:09:45;;;;;;;6.40;5.80;;;33.50;42.30;33.40;101410;;;;566583;246;23190;-77
2023/04/09 07:12:13;;;;;;;7.15;5.57;;;33.70;41.60;33.40;101421;;;;575949;246;23111;-78
2023/04/09 07:14:41;;;;;;;6.55;5.47;;;33.80;41.40;33.50;101414;;;;562085;247;23139;-77
2023/04/09 07:17:09;;;;;;;6.18;5.00;;;33.80;41.10;33.90;101421;;;;574326;246;23131;-78
2023/04/09 07:19:37;;;;;;;5.40;4.85;;;34.10;40.30;34.30;101427;;;;573570;246;23122;-78
2023/04/09 07:22:05;;;;;;;8.23;5.50;;;34.50;39.70;34.60;101429;;;;555328;252;24211;-76
2023/04/09 07:24:33;;;;;;;6.30;5.68;;;34.90;39.40;35.20;101429;;;;573998;246;23091;-78
2023/04/09 07:27:05;;;;;;;7.15;4.90;;;35.90;38.70;35.60;101429;;;;571976;247;23102;-77
2023/04/09 07:29:32;;;;;;;6.62;4.90;;;35.90;38.60;36.00;101437;;;;554817;250;23135;-77
2023/04/09 07:32:01;;;;;;;5.75;4.37;;;36.30;38.10;35.90;101432;;;;567790;247;23167;-77
2023/04/09 07:34:28;;;;;;;4.53;4.15;;;36.30;37.50;36.00;101435;;;;577193;246;24092;-76
2023/04/09 07:36:56;;;;;;;8.00;4.37;;;36.30;36.50;35.90;101440;;;;555845;251;23125;-77
2023/04/09 07:39:24;;;;;;;5.35;4.12;;;36.30;36.90;35.90;101438;;;;574945;246;23088;-77
2023/04/09 07:41:52;;;;;;;4.43;3.70;;;36.20;37.10;35.70;101440;;;;563136;247;23099;-77
2023/04/09 07:44:20;;;;;;;5.78;4.35;;;36.10;37.70;35.90;101435;;;;567624;247;24157;-77
2023/04/09 07:46:48;;;;;;;4.25;3.85;;;36.20;36.10;36.40;101436;;;;573783;245;23155;-76
2023/04/09 07:49:16;;;;;;;3.95;3.53;;;36.60;36.20;36.70;101438;;;;575098;247;23164;-78
2023/04/09 07:51:43;;;;;;;4.35;3.60;;;37.00;35.60;37.10;101446;;;;563399;247;23137;-77
2023/04/09 07:54:11;;;;;;;4.82;3.85;;;37.40;35.20;37.70;101446;;;;567452;247;35355;-78
2023/04/09 07:56:40;;;;;;;5.03;4.03;;;38.00;34.60;37.60;101453;;;;560791;249;23127;-78
2023/04/09 07:59:07;;;;;;;5.03;4.00;;;38.10;34.90;37.60;101451;;;;572455;247;23174;-78
2023/04/09 08:01:36;;;;;;;7.82;3.15;;;38.10;34.40;37.40;101448;;;;570192;247;23133;-79
2023/04/09 08:04:05;;;;;;;3.42;3.03;;;38.00;34.30;37.50;101448;;;;573820;247;23164;-79
2023/04/09 08:06:33;;;;;;;5.62;3.58;;;38.00;34.30;37.00;101456;;;;576829;246;25212;-78
2023/04/09 08:09:00;;;;;;;5.75;3.87;;;37.80;34.10;36.80;101451;;;;561558;247;23147;-77
2023/04/09 08:11:28;;;;;;;6.00;4.47;;;37.50;34.50;36.40;101456;;;;561663;249;23162;-78
2023/04/09 08:13:56;;;;;;;7.32;4.25;;;37.40;34.50;34.00;101457;;;;565194;247;23137;-76
2023/04/09 08:16:24;;;;;;;12.68;4.47;;;36.10;35.50;32.20;101451;;;;568850;245;23110;-77
2023/04/09 08:18:52;;;;;;;5.65;3.90;;;34.30;36.70;30.70;101459;;;;561890;246;23125;-77
2023/04/09 08:21:21;;;;;;;5.22;4.70;;;31.10;39.60;29.00;101462;;;;568451;247;24055;-77
2023/04/09 08:23:49;;;;;;;7.03;4.78;;;31.00;39.60;27.80;101448;;;;565150;246;23154;-77
2023/04/09 08:26:17;;;;;;;4.82;3.97;;;29.70;40.90;26.50;101455;;;;556891;251;23101;-78
2023/04/09 08:28:45;;;;;;;7.62;4.28;;;28.40;42.70;25.30;101450;;;;567202;251;23097;-79
2023/04/09 08:31:14;;;;;;;7.20;4.60;;;25.90;46.10;24.30;101451;;;;563582;247;23113;-77
2023/04/09 08:33:42;;;;;;;5.70;3.80;;;25.10;47.70;23.90;101455;;;;575721;246;23141;-76
2023/04/09 08:36:10;;;;;;;5.73;3.43;;;25.00;47.60;23.50;101446;;;;571304;246;23138;-77
2023/04/09 08:38:38;;;;;;;5.97;4.37;;;24.40;48.40;23.30;101448;;;;573664;246;23107;-77
2023/04/09 08:41:06;;;;;;;5.77;4.03;;;24.00;49.20;23.60;101440;;;;571706;246;23141;-77
2023/04/09 08:43:33;;;;;;;5.68;4.18;;;24.00;50.10;24.60;101447;;;;560329;247;35286;-78
2023/04/09 08:46:02;;;;;;;5.97;4.70;;;24.80;49.90;24.70;101452;;;;572950;246;23150;-77
2023/04/09 08:48:29;;;;;;;7.17;3.60;;;25.20;48.70;24.50;101450;;;;566186;247;23099;-78
2023/04/09 08:50:57;;;;;;;6.13;3.40;;;25.20;48.60;23.80;101451;;;;565857;247;23173;-76
2023/04/09 08:53:26;;;;;;;5.63;3.90;;;24.70;48.80;24.00;101449;;;;561745;247;23085;-77
2023/04/09 08:55:53;;;;;;;6.20;3.97;;;24.80;49.50;24.50;101447;;;;561552;247;23097;-77
2023/04/09 08:58:22;;;;;;;5.70;3.67;;;25.30;49.00;24.60;101449;;;;566001;247;24152;-77
2023/04/09 09:00:50;;;;;;;6.78;4.12;;;25.30;49.30;24.00;101456;;;;561138;249;35549;-77
2023/04/09 09:03:18;;;;;;;5.85;4.18;;;25.10;49.70;22.80;101469;;;;561825;249;35491;-77
2023/04/09 09:05:45;;;;;;;6.13;3.73;;;24.30;50.40;21.90;101459;;;;566676;249;23146;-76
2023/04/09 09:08:22;;;;;;;6.47;4.07;;;23.40;52.10;21.30;101457;;;;566981;249;24231;-77
2023/04/09 09:10:50;;;;;;;4.70;3.73;;;22.50;53.50;20.90;101460;;;;566663;249;24121;-76
2023/04/09 09:13:21;;;;;;;4.43;3.20;;;21.40;55.80;20.60;101459;;;;566867;249;24202;-76
2023/04/09 09:15:53;;;;;;;6.00;3.33;;;21.30;55.70;20.40;101465;;;;566394;249;24089;-76
2023/04/09 09:18:21;;;;;;;5.63;3.77;;;21.10;56.40;19.90;101459;;;;562836;249;24132;-77
2023/04/09 09:20:45;;;;;;;7.83;4.10;;;20.80;56.70;19.40;101467;;;;575183;249;24101;-75
2023/04/09 09:23:14;;;;;;;7.27;3.17;;;19.90;58.50;19.10;101464;;;;566661;249;24118;-76
2023/04/09 09:25:43;;;;;;;6.00;3.40;;;19.70;59.00;18.90;101467;;;;566645;249;24171;-76
2023/04/09 09:28:10;;;;;;;7.00;2.97;;;19.60;58.90;18.80;101471;;;;568121;249;24090;-75
2023/04/09 09:30:39;;;;;;;4.17;3.03;;;19.50;59.60;18.70;101467;;;;567944;249;24106;-76
2023/04/09 09:33:09;;;;;;;5.77;2.93;;;19.50;59.60;18.70;101464;;;;567619;249;24101;-76
2023/04/09 09:35:50;;;;;;;3.77;2.60;;;19.40;59.90;19.10;101465;;;;567966;249;24150;-76
2023/04/09 09:38:17;;;;;;;8.63;3.37;;;20.30;58.40;20.00;101462;;;;567950;249;24189;-76
2023/04/09 09:40:45;;;;;;;6.13;3.37;;;20.40;58.60;20.50;101460;;;;567930;249;24106;-77
2023/04/09 09:43:13;;;;;;;3.53;3.17;;;21.00;57.10;20.60;101450;;;;567980;249;24089;-77
2023/04/09 09:45:42;;;;;;;5.57;3.53;;;21.30;56.70;20.60;101459;;;;575965;248;24148;-75
2023/04/09 09:48:12;;;;;;;5.10;3.60;;;21.40;56.60;20.60;101455;;;;567432;249;24074;-76
2023/04/09 09:50:43;;;;;;;6.03;3.37;;;21.40;56.30;20.30;101454;;;;567289;249;24100;-76
2023/04/09 09:53:10;;;;;;;3.70;3.13;;;21.10;56.40;19.80;101454;;;;576003;248;25295;-76
2023/04/09 09:55:42;;;;;;;3.47;2.80;;;20.70;57.20;19.50;101461;;;;567246;249;24137;-77
2023/04/09 09:58:10;;;;;;;7.13;2.90;;;20.30;57.70;19.50;101460;;;;566817;249;24099;-77
2023/04/09 10:00:37;;;;;;;3.87;3.17;;;20.20;58.20;19.80;101447;;;;567378;249;23146;-77
2023/04/09 10:03:20;;;;;;;12.23;3.07;;;20.40;57.70;20.20;101457;;;;575680;248;24154;-76
2023/04/09 10:05:47;;;;;;;4.77;2.97;;;20.80;57.50;21.10;101458;;;;566568;249;24101;-77
2023/04/09 10:08:16;;;;;;;4.60;3.10;;;22.20;54.40;21.40;101463;;;;566701;249;24091;-76
2023/04/09 10:10:45;;;;;;;3.03;2.77;;;21.90;54.10;20.90;101442;;;;567077;249;24233;-77
2023/04/09 10:13:25;;;;;;;4.27;2.93;;;21.90;54.00;20.50;101446;;;;575526;249;24128;-77
2023/04/09 10:15:52;;;;;;;5.27;2.60;;;21.60;55.60;20.10;101445;;;;566602;249;23144;-77
2023/04/09 10:18:21;;;;;;;4.90;3.27;;;21.20;55.20;19.70;101447;;;;566590;249;24119;-77
2023/04/09 10:21:03;;;;;;;3.27;3.03;;;20.70;55.70;19.00;101440;;;;567231;249;24221;-79
2023/04/09 10:23:37;;;;;;;4.83;3.10;;;20.10;56.00;18.50;101447;;;;563090;249;23132;-78
2023/04/09 10:26:06;;;;;;;4.17;2.80;;;19.10;58.60;18.30;101449;;;;566913;249;24125;-78
2023/04/09 10:28:34;;;;;;;4.13;2.80;;;19.10;58.60;17.70;101444;;;;575828;248;24386;-78
2023/04/09 10:31:02;;;;;;;6.20;2.57;;;18.60;58.90;17.50;101453;;;;576199;249;23113;-76
2023/04/09 10:33:29;;;;;;;3.13;2.57;;;18.30;59.40;17.20;101443;;;;567124;249;24116;-75
2023/04/09 10:36:01;;;;;;;2.63;2.27;;;18.00;59.60;17.20;101443;;;;567456;249;24159;-79
2023/04/09 10:38:41;;;;;;;8.50;1.80;;;17.90;60.20;17.00;101440;;;;567185;248;24087;-76
2023/04/09 10:41:15;;;;;;;4.67;2.63;;;17.80;58.60;16.50;101447;;;;568145;249;24102;-78
2023/04/09 10:43:42;;;;;;;4.37;2.60;;;17.50;60.20;16.30;101439;;;;567715;249;24085;-78
2023/04/09 10:46:28;;;;;;;4.83;2.67;;;17.10;61.40;16.10;101446;;;;568194;249;24088;-76
2023/04/09 10:49:26;;;;;;;5.17;2.60;;;16.60;62.50;15.90;101439;;;;568389;249;24101;-78
2023/04/09 10:52:00;;;;;;;3.23;2.30;;;16.60;62.50;15.50;101448;;;;567920;249;24090;-76
2023/04/09 10:54:34;;;;;;;3.57;1.90;;;16.20;62.60;15.00;101441;;;;567461;249;24092;-77
2023/04/09 10:57:12;;;;;;;3.53;2.10;;;15.80;63.60;14.60;101437;;;;567721;245;24093;-79
2023/04/09 10:59:41;;;;;;;3.33;2.20;;;15.40;63.70;14.30;101446;;;;567930;249;24110;-77
2023/04/09 11:02:13;;;;;;;4.97;2.70;;;15.00;64.30;13.90;101438;;;;567506;249;24207;-78
2023/04/09 11:05:09;;;;;;;5.03;2.10;;;14.60;65.50;13.70;101444;;;;567432;249;24104;-78
2023/04/09 11:07:37;;;;;;;1.93;1.83;;;14.30;67.40;13.50;101437;;;;567897;249;24090;-78
2023/04/09 11:10:05;;;;;;;2.47;2.10;;;14.10;67.30;13.40;101442;;;;567348;249;24111;-77
2023/04/09 11:12:34;;;;;;;2.50;2.27;;;13.90;69.40;13.20;101445;;;;566591;249;24076;-77
2023/04/09 11:15:02;;;;;;;4.47;2.20;;;13.80;69.30;13.10;101449;;;;567865;249;24184;-76
2023/04/09 11:17:30;;;;;;;6.73;1.83;;;13.70;69.30;12.90;101442;;;;567717;249;24093;-77
2023/04/09 11:19:58;;;;;;;4.60;2.03;;;13.50;69.70;12.70;101447;;;;567220;249;24090;-76